sensor_id;sensor_type;location;lat;lon;timestamp;P1;durP1;ratioP1;P2;durP2;ratioP2
75038;SDS011;63609;49.992;14.512;2024-02-26T00:01:11;31.13;;;15.00;;
75038;SDS011;63609;49.992;14.512;2024-02-26T00:03:38;30.23;;;13.77;;
75038;SDS011;63609;49.992;14.512;2024-02-26T00:06:05;30.65;;;14.90;;
75038;SDS011;63609;49.992;14.512;2024-02-26T00:08:32;34.67;;;14.50;;
75038;SDS011;63609;49.992;14.512;2024-02-26T00:10:59;30.05;;;14.13;;
75038;SDS011;63609;49.992;14.512;2024-02-26T00:13:26;27.80;;;13.85;;
75038;SDS011;63609;49.992;14.512;2024-02-26T00:18:19;27.13;;;13.70;;
75038;SDS011;63609;49.992;14.512;2024-02-26T00:23:16;27.63;;;13.10;;
75038;SDS011;63609;49.992;14.512;2024-02-26T00:25:43;34.10;;;14.73;;
75038;SDS011;63609;49.992;14.512;2024-02-26T00:28:10;47.53;;;18.52;;
75038;SDS011;63609;49.992;14.512;2024-02-26T00:30:37;44.83;;;16.77;;
75038;SDS011;63609;49.992;14.512;2024-02-26T00:35:31;41.65;;;16.42;;
75038;SDS011;63609;49.992;14.512;2024-02-26T00:37:57;39.15;;;15.90;;
75038;SDS011;63609;49.992;14.512;2024-02-26T00:40:26;37.13;;;16.05;;
75038;SDS011;63609;49.992;14.512;2024-02-26T00:42:53;38.60;;;17.05;;
75038;SDS011;63609;49.992;14.512;2024-02-26T00:45:19;43.55;;;15.10;;
75038;SDS011;63609;49.992;14.512;2024-02-26T00:47:48;41.70;;;16.15;;
75038;SDS011;63609;49.992;14.512;2024-02-26T00:50:16;42.90;;;15.85;;
75038;SDS011;63609;49.992;14.512;2024-02-26T00:52:43;45.13;;;17.58;;
75038;SDS011;63609;49.992;14.512;2024-02-26T00:55:10;47.17;;;18.70;;
75038;SDS011;63609;49.992;14.512;2024-02-26T00:57:36;44.90;;;17.52;;
75038;SDS011;63609;49.992;14.512;2024-02-26T01:03:31;44.47;;;16.35;;
75038;SDS011;63609;49.992;14.512;2024-02-26T01:05:58;46.13;;;16.65;;
75038;SDS011;63609;49.992;14.512;2024-02-26T01:08:25;46.53;;;16.73;;
75038;SDS011;63609;49.992;14.512;2024-02-26T01:10:52;40.78;;;17.17;;
75038;SDS011;63609;49.992;14.512;2024-02-26T01:13:19;40.33;;;14.90;;
75038;SDS011;63609;49.992;14.512;2024-02-26T01:15:46;37.90;;;14.48;;
75038;SDS011;63609;49.992;14.512;2024-02-26T01:18:13;39.05;;;14.52;;
75038;SDS011;63609;49.992;14.512;2024-02-26T01:20:40;29.52;;;14.43;;
75038;SDS011;63609;49.992;14.512;2024-02-26T01:23:07;34.78;;;14.10;;
75038;SDS011;63609;49.992;14.512;2024-02-26T01:25:34;31.70;;;13.88;;
75038;SDS011;63609;49.992;14.512;2024-02-26T01:28:00;34.13;;;13.93;;
75038;SDS011;63609;49.992;14.512;2024-02-26T01:30:27;35.83;;;15.00;;
75038;SDS011;63609;49.992;14.512;2024-02-26T01:32:54;34.08;;;12.98;;
75038;SDS011;63609;49.992;14.512;2024-02-26T01:35:21;36.63;;;15.48;;
75038;SDS011;63609;49.992;14.512;2024-02-26T01:37:48;34.72;;;15.00;;
75038;SDS011;63609;49.992;14.512;2024-02-26T01:40:15;38.53;;;15.80;;
75038;SDS011;63609;49.992;14.512;2024-02-26T01:42:46;47.05;;;16.73;;
75038;SDS011;63609;49.992;14.512;2024-02-26T01:45:14;41.13;;;17.13;;
75038;SDS011;63609;49.992;14.512;2024-02-26T01:47:42;37.33;;;16.23;;
75038;SDS011;63609;49.992;14.512;2024-02-26T01:50:12;37.10;;;13.98;;
75038;SDS011;63609;49.992;14.512;2024-02-26T01:55:07;30.88;;;14.40;;
75038;SDS011;63609;49.992;14.512;2024-02-26T01:57:34;36.42;;;14.35;;
75038;SDS011;63609;49.992;14.512;2024-02-26T02:00:02;31.85;;;14.13;;
75038;SDS011;63609;49.992;14.512;2024-02-26T02:02:33;37.72;;;14.75;;
75038;SDS011;63609;49.992;14.512;2024-02-26T02:05:01;33.80;;;13.77;;
75038;SDS011;63609;49.992;14.512;2024-02-26T02:07:28;29.42;;;13.43;;
75038;SDS011;63609;49.992;14.512;2024-02-26T02:09:56;29.52;;;12.52;;
75038;SDS011;63609;49.992;14.512;2024-02-26T02:14:50;23.10;;;11.52;;
75038;SDS011;63609;49.992;14.512;2024-02-26T02:17:17;40.15;;;14.05;;
75038;SDS011;63609;49.992;14.512;2024-02-26T02:19:44;38.28;;;14.93;;
75038;SDS011;63609;49.992;14.512;2024-02-26T02:22:10;30.15;;;13.52;;
75038;SDS011;63609;49.992;14.512;2024-02-26T02:24:37;34.30;;;14.05;;
75038;SDS011;63609;49.992;14.512;2024-02-26T02:27:04;37.00;;;14.35;;
75038;SDS011;63609;49.992;14.512;2024-02-26T02:29:31;31.25;;;14.73;;
75038;SDS011;63609;49.992;14.512;2024-02-26T02:31:58;35.40;;;14.23;;
75038;SDS011;63609;49.992;14.512;2024-02-26T02:34:27;40.15;;;14.68;;
75038;SDS011;63609;49.992;14.512;2024-02-26T02:36:55;37.08;;;14.32;;
75038;SDS011;63609;49.992;14.512;2024-02-26T02:41:49;28.27;;;12.75;;
75038;SDS011;63609;49.992;14.512;2024-02-26T02:46:42;35.88;;;13.65;;
75038;SDS011;63609;49.992;14.512;2024-02-26T02:49:10;48.08;;;15.68;;
75038;SDS011;63609;49.992;14.512;2024-02-26T02:51:37;35.88;;;13.90;;
75038;SDS011;63609;49.992;14.512;2024-02-26T02:54:04;50.33;;;16.27;;
75038;SDS011;63609;49.992;14.512;2024-02-26T02:58:57;40.05;;;15.25;;
75038;SDS011;63609;49.992;14.512;2024-02-26T03:01:24;39.15;;;14.90;;
75038;SDS011;63609;49.992;14.512;2024-02-26T03:03:51;37.15;;;13.95;;
75038;SDS011;63609;49.992;14.512;2024-02-26T03:06:19;48.88;;;15.85;;
75038;SDS011;63609;49.992;14.512;2024-02-26T03:08:47;36.63;;;14.95;;
75038;SDS011;63609;49.992;14.512;2024-02-26T03:11:14;42.63;;;15.85;;
75038;SDS011;63609;49.992;14.512;2024-02-26T03:13:41;42.58;;;16.45;;
75038;SDS011;63609;49.992;14.512;2024-02-26T03:16:09;38.80;;;14.85;;
75038;SDS011;63609;49.992;14.512;2024-02-26T03:18:38;46.90;;;17.08;;
75038;SDS011;63609;49.992;14.512;2024-02-26T03:21:06;37.30;;;16.33;;
75038;SDS011;63609;49.992;14.512;2024-02-26T03:23:34;53.70;;;16.75;;
75038;SDS011;63609;49.992;14.512;2024-02-26T03:26:04;44.47;;;15.98;;
75038;SDS011;63609;49.992;14.512;2024-02-26T03:28:31;39.40;;;15.73;;
75038;SDS011;63609;49.992;14.512;2024-02-26T03:31:00;38.75;;;14.30;;
75038;SDS011;63609;49.992;14.512;2024-02-26T03:33:28;28.60;;;13.88;;
75038;SDS011;63609;49.992;14.512;2024-02-26T03:35:56;35.63;;;14.00;;
75038;SDS011;63609;49.992;14.512;2024-02-26T03:40:49;27.63;;;11.27;;
75038;SDS011;63609;49.992;14.512;2024-02-26T03:43:16;28.27;;;11.60;;
75038;SDS011;63609;49.992;14.512;2024-02-26T03:45:43;25.10;;;11.20;;
75038;SDS011;63609;49.992;14.512;2024-02-26T03:48:10;25.00;;;12.20;;
75038;SDS011;63609;49.992;14.512;2024-02-26T03:50:37;22.45;;;11.07;;
75038;SDS011;63609;49.992;14.512;2024-02-26T03:53:04;26.02;;;11.05;;
75038;SDS011;63609;49.992;14.512;2024-02-26T03:55:32;26.05;;;12.02;;
75038;SDS011;63609;49.992;14.512;2024-02-26T03:57:59;33.72;;;12.90;;
75038;SDS011;63609;49.992;14.512;2024-02-26T04:00:26;25.23;;;12.82;;
75038;SDS011;63609;49.992;14.512;2024-02-26T04:02:53;35.63;;;13.85;;
75038;SDS011;63609;49.992;14.512;2024-02-26T04:05:20;32.38;;;13.07;;
75038;SDS011;63609;49.992;14.512;2024-02-26T04:07:47;28.35;;;12.77;;
75038;SDS011;63609;49.992;14.512;2024-02-26T04:10:14;30.17;;;13.05;;
75038;SDS011;63609;49.992;14.512;2024-02-26T04:12:41;29.92;;;13.25;;
75038;SDS011;63609;49.992;14.512;2024-02-26T04:15:09;25.50;;;12.93;;
75038;SDS011;63609;49.992;14.512;2024-02-26T04:17:37;30.27;;;11.25;;
75038;SDS011;63609;49.992;14.512;2024-02-26T04:20:05;27.25;;;11.55;;
75038;SDS011;63609;49.992;14.512;2024-02-26T04:22:33;29.08;;;13.05;;
75038;SDS011;63609;49.992;14.512;2024-02-26T04:27:26;25.98;;;10.50;;
75038;SDS011;63609;49.992;14.512;2024-02-26T04:29:53;23.38;;;11.48;;
75038;SDS011;63609;49.992;14.512;2024-02-26T04:32:20;23.48;;;12.10;;
75038;SDS011;63609;49.992;14.512;2024-02-26T04:34:47;25.95;;;11.63;;
75038;SDS011;63609;49.992;14.512;2024-02-26T04:39:41;21.50;;;9.85;;
75038;SDS011;63609;49.992;14.512;2024-02-26T04:42:08;23.90;;;11.60;;
75038;SDS011;63609;49.992;14.512;2024-02-26T04:44:34;23.17;;;11.38;;
75038;SDS011;63609;49.992;14.512;2024-02-26T04:47:01;24.30;;;10.75;;
75038;SDS011;63609;49.992;14.512;2024-02-26T04:51:55;15.45;;;7.32;;
75038;SDS011;63609;49.992;14.512;2024-02-26T04:54:22;24.33;;;11.40;;
75038;SDS011;63609;49.992;14.512;2024-02-26T04:56:49;22.55;;;10.45;;
75038;SDS011;63609;49.992;14.512;2024-02-26T05:01:42;31.58;;;14.43;;
75038;SDS011;63609;49.992;14.512;2024-02-26T05:06:36;26.50;;;11.13;;
75038;SDS011;63609;49.992;14.512;2024-02-26T05:09:04;26.48;;;11.85;;
75038;SDS011;63609;49.992;14.512;2024-02-26T05:11:31;28.02;;;9.65;;
75038;SDS011;63609;49.992;14.512;2024-02-26T05:13:58;33.25;;;12.85;;
75038;SDS011;63609;49.992;14.512;2024-02-26T05:16:26;31.42;;;11.10;;
75038;SDS011;63609;49.992;14.512;2024-02-26T05:18:53;33.38;;;11.90;;
75038;SDS011;63609;49.992;14.512;2024-02-26T05:21:20;29.08;;;13.05;;
75038;SDS011;63609;49.992;14.512;2024-02-26T05:23:47;19.92;;;9.35;;
75038;SDS011;63609;49.992;14.512;2024-02-26T05:26:21;31.42;;;12.25;;
75038;SDS011;63609;49.992;14.512;2024-02-26T05:28:49;26.27;;;10.05;;
75038;SDS011;63609;49.992;14.512;2024-02-26T05:31:16;28.65;;;11.45;;
75038;SDS011;63609;49.992;14.512;2024-02-26T05:33:44;27.85;;;12.52;;
75038;SDS011;63609;49.992;14.512;2024-02-26T05:36:17;31.75;;;13.32;;
75038;SDS011;63609;49.992;14.512;2024-02-26T05:38:49;26.38;;;10.55;;
75038;SDS011;63609;49.992;14.512;2024-02-26T05:41:16;20.52;;;9.90;;
75038;SDS011;63609;49.992;14.512;2024-02-26T05:43:50;35.92;;;10.93;;
75038;SDS011;63609;49.992;14.512;2024-02-26T05:48:46;26.52;;;8.38;;
75038;SDS011;63609;49.992;14.512;2024-02-26T05:51:18;37.30;;;10.82;;
75038;SDS011;63609;49.992;14.512;2024-02-26T05:53:45;38.80;;;11.70;;
75038;SDS011;63609;49.992;14.512;2024-02-26T05:56:14;29.42;;;11.15;;
75038;SDS011;63609;49.992;14.512;2024-02-26T05:58:42;29.35;;;12.40;;
75038;SDS011;63609;49.992;14.512;2024-02-26T06:01:09;40.83;;;13.23;;
75038;SDS011;63609;49.992;14.512;2024-02-26T06:03:36;30.15;;;12.00;;
75038;SDS011;63609;49.992;14.512;2024-02-26T06:06:03;27.95;;;12.25;;
75038;SDS011;63609;49.992;14.512;2024-02-26T06:08:30;31.52;;;13.45;;
75038;SDS011;63609;49.992;14.512;2024-02-26T06:10:57;37.97;;;12.05;;
75038;SDS011;63609;49.992;14.512;2024-02-26T06:13:24;31.50;;;12.70;;
75038;SDS011;63609;49.992;14.512;2024-02-26T06:15:51;28.70;;;12.00;;
75038;SDS011;63609;49.992;14.512;2024-02-26T06:18:19;39.72;;;12.60;;
75038;SDS011;63609;49.992;14.512;2024-02-26T06:23:13;35.85;;;11.25;;
75038;SDS011;63609;49.992;14.512;2024-02-26T06:25:40;22.67;;;11.32;;
75038;SDS011;63609;49.992;14.512;2024-02-26T06:28:09;28.65;;;11.15;;
75038;SDS011;63609;49.992;14.512;2024-02-26T06:33:03;25.48;;;9.77;;
75038;SDS011;63609;49.992;14.512;2024-02-26T06:35:30;26.73;;;10.52;;
75038;SDS011;63609;49.992;14.512;2024-02-26T06:37:58;33.15;;;11.20;;
75038;SDS011;63609;49.992;14.512;2024-02-26T06:40:25;37.75;;;12.52;;
75038;SDS011;63609;49.992;14.512;2024-02-26T06:42:52;36.20;;;12.82;;
75038;SDS011;63609;49.992;14.512;2024-02-26T06:47:46;23.48;;;10.25;;
75038;SDS011;63609;49.992;14.512;2024-02-26T06:50:13;31.52;;;11.95;;
75038;SDS011;63609;49.992;14.512;2024-02-26T06:52:40;31.42;;;11.77;;
75038;SDS011;63609;49.992;14.512;2024-02-26T06:55:09;37.45;;;11.45;;
75038;SDS011;63609;49.992;14.512;2024-02-26T07:00:03;32.40;;;11.30;;
75038;SDS011;63609;49.992;14.512;2024-02-26T07:02:31;24.65;;;11.02;;
75038;SDS011;63609;49.992;14.512;2024-02-26T07:04:59;27.80;;;11.63;;
75038;SDS011;63609;49.992;14.512;2024-02-26T07:07:26;25.20;;;11.30;;
75038;SDS011;63609;49.992;14.512;2024-02-26T07:09:54;33.08;;;12.27;;
75038;SDS011;63609;49.992;14.512;2024-02-26T07:12:24;33.38;;;12.00;;
75038;SDS011;63609;49.992;14.512;2024-02-26T07:14:52;37.08;;;12.75;;
75038;SDS011;63609;49.992;14.512;2024-02-26T07:17:19;27.60;;;11.68;;
75038;SDS011;63609;49.992;14.512;2024-02-26T07:19:46;23.60;;;11.35;;
75038;SDS011;63609;49.992;14.512;2024-02-26T07:22:13;44.08;;;12.40;;
75038;SDS011;63609;49.992;14.512;2024-02-26T07:24:41;37.10;;;12.35;;
75038;SDS011;63609;49.992;14.512;2024-02-26T07:29:35;28.35;;;11.43;;
75038;SDS011;63609;49.992;14.512;2024-02-26T07:32:02;33.10;;;11.77;;
75038;SDS011;63609;49.992;14.512;2024-02-26T07:36:56;22.30;;;10.40;;
75038;SDS011;63609;49.992;14.512;2024-02-26T07:41:50;29.58;;;10.35;;
75038;SDS011;63609;49.992;14.512;2024-02-26T07:44:20;31.42;;;12.05;;
75038;SDS011;63609;49.992;14.512;2024-02-26T07:46:47;25.85;;;11.18;;
75038;SDS011;63609;49.992;14.512;2024-02-26T07:51:41;32.80;;;12.07;;
75038;SDS011;63609;49.992;14.512;2024-02-26T07:54:08;31.08;;;12.15;;
75038;SDS011;63609;49.992;14.512;2024-02-26T07:56:35;27.63;;;12.35;;
75038;SDS011;63609;49.992;14.512;2024-02-26T07:59:02;30.05;;;13.00;;
75038;SDS011;63609;49.992;14.512;2024-02-26T08:01:29;45.83;;;14.73;;
75038;SDS011;63609;49.992;14.512;2024-02-26T08:03:56;34.55;;;13.60;;
75038;SDS011;63609;49.992;14.512;2024-02-26T08:06:24;34.78;;;14.85;;
75038;SDS011;63609;49.992;14.512;2024-02-26T08:08:52;42.25;;;15.70;;
75038;SDS011;63609;49.992;14.512;2024-02-26T08:11:22;37.47;;;14.57;;
75038;SDS011;63609;49.992;14.512;2024-02-26T08:16:15;36.13;;;14.32;;
75038;SDS011;63609;49.992;14.512;2024-02-26T08:18:44;39.92;;;13.65;;
75038;SDS011;63609;49.992;14.512;2024-02-26T08:21:11;32.63;;;14.90;;
75038;SDS011;63609;49.992;14.512;2024-02-26T08:23:38;32.65;;;13.98;;
75038;SDS011;63609;49.992;14.512;2024-02-26T08:26:06;39.75;;;15.20;;
75038;SDS011;63609;49.992;14.512;2024-02-26T08:28:37;33.05;;;14.68;;
75038;SDS011;63609;49.992;14.512;2024-02-26T08:31:04;38.45;;;14.20;;
75038;SDS011;63609;49.992;14.512;2024-02-26T08:33:31;36.55;;;15.77;;
75038;SDS011;63609;49.992;14.512;2024-02-26T08:36:04;39.10;;;16.00;;
75038;SDS011;63609;49.992;14.512;2024-02-26T08:38:32;45.17;;;15.52;;
75038;SDS011;63609;49.992;14.512;2024-02-26T08:41:01;33.95;;;13.88;;
75038;SDS011;63609;49.992;14.512;2024-02-26T08:43:29;40.20;;;15.90;;
75038;SDS011;63609;49.992;14.512;2024-02-26T08:48:25;40.80;;;15.95;;
75038;SDS011;63609;49.992;14.512;2024-02-26T08:50:52;42.53;;;15.80;;
75038;SDS011;63609;49.992;14.512;2024-02-26T08:53:20;43.47;;;16.80;;
75038;SDS011;63609;49.992;14.512;2024-02-26T08:55:57;35.88;;;14.60;;
75038;SDS011;63609;49.992;14.512;2024-02-26T08:58:24;36.22;;;14.07;;
75038;SDS011;63609;49.992;14.512;2024-02-26T09:00:51;33.72;;;15.57;;
75038;SDS011;63609;49.992;14.512;2024-02-26T09:03:18;45.30;;;16.88;;
75038;SDS011;63609;49.992;14.512;2024-02-26T09:05:45;36.67;;;15.60;;
75038;SDS011;63609;49.992;14.512;2024-02-26T09:08:12;33.83;;;14.60;;
75038;SDS011;63609;49.992;14.512;2024-02-26T09:13:06;35.90;;;16.45;;
75038;SDS011;63609;49.992;14.512;2024-02-26T09:17:59;39.30;;;16.05;;
75038;SDS011;63609;49.992;14.512;2024-02-26T09:20:27;41.17;;;16.77;;
75038;SDS011;63609;49.992;14.512;2024-02-26T09:22:54;44.53;;;17.15;;
75038;SDS011;63609;49.992;14.512;2024-02-26T09:27:48;41.78;;;15.77;;
75038;SDS011;63609;49.992;14.512;2024-02-26T09:30:15;44.22;;;18.35;;
75038;SDS011;63609;49.992;14.512;2024-02-26T09:32:45;37.05;;;14.95;;
75038;SDS011;63609;49.992;14.512;2024-02-26T09:35:13;47.15;;;17.73;;
75038;SDS011;63609;49.992;14.512;2024-02-26T09:40:08;36.78;;;15.57;;
75038;SDS011;63609;49.992;14.512;2024-02-26T09:42:43;44.45;;;18.33;;
75038;SDS011;63609;49.992;14.512;2024-02-26T09:45:17;52.28;;;20.33;;
75038;SDS011;63609;49.992;14.512;2024-02-26T09:47:47;53.38;;;20.40;;
75038;SDS011;63609;49.992;14.512;2024-02-26T09:50:16;54.90;;;16.25;;
75038;SDS011;63609;49.992;14.512;2024-02-26T09:52:44;33.88;;;14.50;;
75038;SDS011;63609;49.992;14.512;2024-02-26T09:57:38;37.85;;;15.20;;
75038;SDS011;63609;49.992;14.512;2024-02-26T10:00:17;35.13;;;16.85;;
75038;SDS011;63609;49.992;14.512;2024-02-26T10:02:46;48.05;;;18.63;;
75038;SDS011;63609;49.992;14.512;2024-02-26T10:05:16;46.85;;;18.17;;
75038;SDS011;63609;49.992;14.512;2024-02-26T10:07:48;48.30;;;18.90;;
75038;SDS011;63609;49.992;14.512;2024-02-26T10:10:15;48.25;;;18.88;;
75038;SDS011;63609;49.992;14.512;2024-02-26T10:12:44;40.08;;;17.70;;
75038;SDS011;63609;49.992;14.512;2024-02-26T10:15:11;49.78;;;18.67;;
75038;SDS011;63609;49.992;14.512;2024-02-26T10:17:38;37.60;;;15.45;;
75038;SDS011;63609;49.992;14.512;2024-02-26T10:20:11;37.22;;;17.58;;
75038;SDS011;63609;49.992;14.512;2024-02-26T10:22:39;32.97;;;14.98;;
75038;SDS011;63609;49.992;14.512;2024-02-26T10:25:06;37.35;;;15.88;;
75038;SDS011;63609;49.992;14.512;2024-02-26T10:27:34;32.05;;;14.60;;
75038;SDS011;63609;49.992;14.512;2024-02-26T10:30:02;30.95;;;12.95;;
75038;SDS011;63609;49.992;14.512;2024-02-26T10:32:31;25.60;;;11.00;;
75038;SDS011;63609;49.992;14.512;2024-02-26T10:34:59;30.63;;;12.88;;
75038;SDS011;63609;49.992;14.512;2024-02-26T10:37:26;40.95;;;15.88;;
75038;SDS011;63609;49.992;14.512;2024-02-26T10:39:55;42.05;;;17.67;;
75038;SDS011;63609;49.992;14.512;2024-02-26T10:42:25;35.42;;;13.35;;
75038;SDS011;63609;49.992;14.512;2024-02-26T10:44:52;30.52;;;11.88;;
75038;SDS011;63609;49.992;14.512;2024-02-26T10:47:20;32.60;;;13.15;;
75038;SDS011;63609;49.992;14.512;2024-02-26T10:49:48;40.92;;;18.38;;
75038;SDS011;63609;49.992;14.512;2024-02-26T10:52:18;33.05;;;14.57;;
75038;SDS011;63609;49.992;14.512;2024-02-26T10:54:47;36.67;;;15.07;;
75038;SDS011;63609;49.992;14.512;2024-02-26T10:57:17;36.83;;;14.88;;
75038;SDS011;63609;49.992;14.512;2024-02-26T10:59:45;31.05;;;13.68;;
75038;SDS011;63609;49.992;14.512;2024-02-26T11:02:12;28.55;;;12.27;;
75038;SDS011;63609;49.992;14.512;2024-02-26T11:04:40;31.17;;;12.02;;
75038;SDS011;63609;49.992;14.512;2024-02-26T11:07:08;36.28;;;14.85;;
75038;SDS011;63609;49.992;14.512;2024-02-26T11:09:37;34.67;;;13.13;;
75038;SDS011;63609;49.992;14.512;2024-02-26T11:12:10;36.67;;;14.50;;
75038;SDS011;63609;49.992;14.512;2024-02-26T11:14:42;40.00;;;16.20;;
75038;SDS011;63609;49.992;14.512;2024-02-26T11:17:13;29.98;;;11.68;;
75038;SDS011;63609;49.992;14.512;2024-02-26T11:19:43;23.75;;;11.10;;
75038;SDS011;63609;49.992;14.512;2024-02-26T11:22:11;28.65;;;11.30;;
75038;SDS011;63609;49.992;14.512;2024-02-26T11:24:50;29.58;;;12.52;;
75038;SDS011;63609;49.992;14.512;2024-02-26T11:27:17;30.45;;;11.25;;
75038;SDS011;63609;49.992;14.512;2024-02-26T11:29:47;30.35;;;11.43;;
75038;SDS011;63609;49.992;14.512;2024-02-26T11:32:17;36.33;;;13.77;;
75038;SDS011;63609;49.992;14.512;2024-02-26T11:34:45;38.08;;;14.23;;
75038;SDS011;63609;49.992;14.512;2024-02-26T11:37:13;32.97;;;12.70;;
75038;SDS011;63609;49.992;14.512;2024-02-26T11:39:42;31.20;;;11.98;;
75038;SDS011;63609;49.992;14.512;2024-02-26T11:42:09;28.98;;;11.95;;
75038;SDS011;63609;49.992;14.512;2024-02-26T11:44:40;29.15;;;10.85;;
75038;SDS011;63609;49.992;14.512;2024-02-26T11:47:21;29.63;;;12.60;;
75038;SDS011;63609;49.992;14.512;2024-02-26T11:49:49;34.92;;;12.98;;
75038;SDS011;63609;49.992;14.512;2024-02-26T11:52:19;30.80;;;12.27;;
75038;SDS011;63609;49.992;14.512;2024-02-26T11:57:28;34.85;;;11.90;;
75038;SDS011;63609;49.992;14.512;2024-02-26T12:00:10;31.05;;;12.20;;
75038;SDS011;63609;49.992;14.512;2024-02-26T12:05:30;26.40;;;10.98;;
75038;SDS011;63609;49.992;14.512;2024-02-26T12:08:01;23.35;;;10.43;;
75038;SDS011;63609;49.992;14.512;2024-02-26T12:10:37;28.80;;;10.13;;
75038;SDS011;63609;49.992;14.512;2024-02-26T12:13:12;19.92;;;8.63;;
75038;SDS011;63609;49.992;14.512;2024-02-26T12:15:55;25.83;;;10.07;;
75038;SDS011;63609;49.992;14.512;2024-02-26T12:18:24;23.63;;;10.70;;
75038;SDS011;63609;49.992;14.512;2024-02-26T12:21:00;26.35;;;11.55;;
75038;SDS011;63609;49.992;14.512;2024-02-26T12:23:32;18.90;;;9.43;;
75038;SDS011;63609;49.992;14.512;2024-02-26T12:26:00;27.30;;;11.48;;
75038;SDS011;63609;49.992;14.512;2024-02-26T12:28:31;24.70;;;11.55;;
75038;SDS011;63609;49.992;14.512;2024-02-26T12:30:58;26.30;;;10.73;;
75038;SDS011;63609;49.992;14.512;2024-02-26T12:33:26;25.33;;;10.60;;
75038;SDS011;63609;49.992;14.512;2024-02-26T12:35:55;27.15;;;11.05;;
75038;SDS011;63609;49.992;14.512;2024-02-26T12:38:23;27.27;;;12.27;;
75038;SDS011;63609;49.992;14.512;2024-02-26T12:40:51;26.90;;;12.65;;
75038;SDS011;63609;49.992;14.512;2024-02-26T12:43:19;23.85;;;10.57;;
75038;SDS011;63609;49.992;14.512;2024-02-26T12:45:46;26.98;;;12.10;;
75038;SDS011;63609;49.992;14.512;2024-02-26T12:48:14;25.75;;;11.15;;
75038;SDS011;63609;49.992;14.512;2024-02-26T12:50:45;27.63;;;11.73;;
75038;SDS011;63609;49.992;14.512;2024-02-26T12:53:14;28.73;;;11.15;;
75038;SDS011;63609;49.992;14.512;2024-02-26T12:55:41;22.40;;;10.60;;
75038;SDS011;63609;49.992;14.512;2024-02-26T12:58:09;21.30;;;9.38;;
75038;SDS011;63609;49.992;14.512;2024-02-26T13:00:37;23.00;;;11.40;;
75038;SDS011;63609;49.992;14.512;2024-02-26T13:03:05;23.15;;;10.20;;
75038;SDS011;63609;49.992;14.512;2024-02-26T13:05:32;26.25;;;10.88;;
75038;SDS011;63609;49.992;14.512;2024-02-26T13:08:00;25.65;;;11.60;;
75038;SDS011;63609;49.992;14.512;2024-02-26T13:10:29;24.38;;;11.63;;
75038;SDS011;63609;49.992;14.512;2024-02-26T13:12:58;28.38;;;12.88;;
75038;SDS011;63609;49.992;14.512;2024-02-26T13:15:29;29.48;;;12.52;;
75038;SDS011;63609;49.992;14.512;2024-02-26T13:17:58;23.27;;;10.27;;
75038;SDS011;63609;49.992;14.512;2024-02-26T13:20:37;24.17;;;11.68;;
75038;SDS011;63609;49.992;14.512;2024-02-26T13:23:07;26.42;;;11.75;;
75038;SDS011;63609;49.992;14.512;2024-02-26T13:25:38;28.15;;;10.93;;
75038;SDS011;63609;49.992;14.512;2024-02-26T13:28:15;20.10;;;9.77;;
75038;SDS011;63609;49.992;14.512;2024-02-26T13:30:50;21.42;;;9.52;;
75038;SDS011;63609;49.992;14.512;2024-02-26T13:33:19;20.45;;;9.68;;
75038;SDS011;63609;49.992;14.512;2024-02-26T13:35:47;20.77;;;10.13;;
75038;SDS011;63609;49.992;14.512;2024-02-26T13:38:14;23.45;;;10.40;;
75038;SDS011;63609;49.992;14.512;2024-02-26T13:43:08;16.95;;;9.10;;
75038;SDS011;63609;49.992;14.512;2024-02-26T13:45:35;23.83;;;10.98;;
75038;SDS011;63609;49.992;14.512;2024-02-26T13:48:05;19.45;;;9.70;;
75038;SDS011;63609;49.992;14.512;2024-02-26T13:50:33;19.50;;;10.23;;
75038;SDS011;63609;49.992;14.512;2024-02-26T13:53:00;21.67;;;9.77;;
75038;SDS011;63609;49.992;14.512;2024-02-26T13:55:28;24.40;;;10.70;;
75038;SDS011;63609;49.992;14.512;2024-02-26T13:57:57;21.13;;;10.43;;
75038;SDS011;63609;49.992;14.512;2024-02-26T14:00:25;23.75;;;10.43;;
75038;SDS011;63609;49.992;14.512;2024-02-26T14:02:53;25.27;;;10.75;;
75038;SDS011;63609;49.992;14.512;2024-02-26T14:05:20;25.23;;;11.73;;
75038;SDS011;63609;49.992;14.512;2024-02-26T14:10:18;22.30;;;9.90;;
75038;SDS011;63609;49.992;14.512;2024-02-26T14:12:45;20.92;;;10.05;;
75038;SDS011;63609;49.992;14.512;2024-02-26T14:15:12;21.40;;;10.75;;
75038;SDS011;63609;49.992;14.512;2024-02-26T14:17:40;22.05;;;10.52;;
75038;SDS011;63609;49.992;14.512;2024-02-26T14:20:07;21.05;;;10.00;;
75038;SDS011;63609;49.992;14.512;2024-02-26T14:22:36;20.63;;;10.23;;
75038;SDS011;63609;49.992;14.512;2024-02-26T14:27:30;18.00;;;8.80;;
75038;SDS011;63609;49.992;14.512;2024-02-26T14:29:56;21.65;;;10.90;;
75038;SDS011;63609;49.992;14.512;2024-02-26T14:32:23;29.20;;;11.13;;
75038;SDS011;63609;49.992;14.512;2024-02-26T14:37:17;24.95;;;10.70;;
75038;SDS011;63609;49.992;14.512;2024-02-26T14:39:45;23.83;;;11.55;;
75038;SDS011;63609;49.992;14.512;2024-02-26T14:42:13;22.80;;;11.63;;
75038;SDS011;63609;49.992;14.512;2024-02-26T14:44:44;28.83;;;12.18;;
75038;SDS011;63609;49.992;14.512;2024-02-26T14:47:13;23.45;;;10.38;;
75038;SDS011;63609;49.992;14.512;2024-02-26T14:49:40;23.85;;;10.70;;
75038;SDS011;63609;49.992;14.512;2024-02-26T14:52:08;24.55;;;11.43;;
75038;SDS011;63609;49.992;14.512;2024-02-26T14:54:36;20.90;;;10.25;;
75038;SDS011;63609;49.992;14.512;2024-02-26T14:57:06;28.98;;;10.45;;
75038;SDS011;63609;49.992;14.512;2024-02-26T14:59:34;26.15;;;10.60;;
75038;SDS011;63609;49.992;14.512;2024-02-26T15:02:03;27.73;;;11.80;;
75038;SDS011;63609;49.992;14.512;2024-02-26T15:04:30;25.35;;;10.82;;
75038;SDS011;63609;49.992;14.512;2024-02-26T15:06:57;24.60;;;10.20;;
75038;SDS011;63609;49.992;14.512;2024-02-26T15:09:25;21.02;;;10.13;;
75038;SDS011;63609;49.992;14.512;2024-02-26T15:11:52;19.00;;;9.75;;
75038;SDS011;63609;49.992;14.512;2024-02-26T15:14:19;21.40;;;9.68;;
75038;SDS011;63609;49.992;14.512;2024-02-26T15:16:46;20.48;;;10.45;;
75038;SDS011;63609;49.992;14.512;2024-02-26T15:19:14;18.83;;;10.60;;
75038;SDS011;63609;49.992;14.512;2024-02-26T15:21:44;21.58;;;10.35;;
75038;SDS011;63609;49.992;14.512;2024-02-26T15:24:15;22.30;;;10.20;;
75038;SDS011;63609;49.992;14.512;2024-02-26T15:26:45;18.33;;;8.88;;
75038;SDS011;63609;49.992;14.512;2024-02-26T15:29:12;18.10;;;10.20;;
75038;SDS011;63609;49.992;14.512;2024-02-26T15:31:40;24.63;;;12.32;;
75038;SDS011;63609;49.992;14.512;2024-02-26T15:34:07;22.92;;;10.70;;
75038;SDS011;63609;49.992;14.512;2024-02-26T15:36:34;23.20;;;11.10;;
75038;SDS011;63609;49.992;14.512;2024-02-26T15:39:02;25.73;;;12.40;;
75038;SDS011;63609;49.992;14.512;2024-02-26T15:41:30;24.40;;;11.35;;
75038;SDS011;63609;49.992;14.512;2024-02-26T15:43:59;23.55;;;10.93;;
75038;SDS011;63609;49.992;14.512;2024-02-26T15:46:26;22.10;;;10.77;;